createdAt,value
2019-03-13T00:00:28.425Z,3.29
2019-03-13T00:02:58.445Z,3.33
2019-03-13T00:05:28.393Z,3.38
2019-03-13T00:07:58.181Z,3.39
2019-03-13T00:10:28.107Z,3.37
2019-03-13T00:12:58.283Z,3.39
2019-03-13T00:15:28.209Z,3.42
2019-03-13T00:17:58.359Z,3.42
2019-03-13T00:20:29.587Z,3.42
2019-03-13T00:22:59.165Z,3.47
2019-03-13T00:25:28.872Z,3.43
2019-03-13T00:27:59.213Z,3.40
2019-03-13T00:30:28.854Z,3.39
2019-03-13T00:32:58.647Z,3.39
2019-03-13T00:35:28.509Z,1.13
2019-03-13T00:37:58.450Z,3.38
2019-03-13T00:40:28.348Z,3.37
2019-03-13T00:42:58.286Z,3.36
2019-03-13T00:45:28.277Z,3.35
2019-03-13T00:47:58.121Z,3.33
2019-03-13T00:50:30.607Z,3.31
2019-03-13T00:53:00.399Z,3.26
2019-03-13T00:55:30.507Z,3.25
2019-03-13T00:58:00.205Z,3.25
2019-03-13T01:01:00.878Z,3.26
2019-03-13T01:03:44.281Z,3.26
2019-03-13T01:06:18.189Z,3.23
2019-03-13T01:08:47.799Z,3.24
2019-03-13T01:11:17.411Z,3.23
2019-03-13T01:13:47.111Z,3.20
2019-03-13T01:16:16.788Z,3.16
2019-03-13T01:18:47.089Z,3.20
2019-03-13T01:21:16.781Z,3.20
2019-03-13T01:23:46.243Z,3.20
2019-03-13T01:26:15.818Z,3.14
2019-03-13T01:28:45.455Z,3.08
2019-03-13T01:31:39.814Z,3.03
2019-03-13T01:34:22.450Z,3.06
2019-03-13T01:36:51.915Z,3.05
2019-03-13T01:39:21.561Z,3.08
2019-03-13T01:41:51.082Z,3.04
2019-03-13T01:44:20.626Z,2.98
2019-03-13T01:46:50.190Z,2.95
2019-03-13T01:49:19.785Z,2.94
2019-03-13T01:51:49.332Z,2.94
2019-03-13T01:54:19.590Z,2.93
2019-03-13T01:56:49.156Z,2.96
2019-03-13T01:59:18.708Z,2.95
2019-03-13T02:01:48.239Z,2.92
2019-03-13T02:04:17.922Z,2.90
2019-03-13T02:06:47.368Z,2.84
2019-03-13T02:09:17.019Z,2.78
2019-03-13T02:11:46.586Z,2.80
2019-03-13T02:14:16.166Z,2.85
2019-03-13T02:16:45.821Z,2.85
2019-03-13T02:19:15.346Z,2.80
2019-03-13T02:21:44.898Z,2.74
2019-03-13T02:24:14.530Z,2.74
2019-03-13T02:26:44.189Z,2.67
2019-03-13T02:29:13.772Z,2.72
2019-03-13T02:31:43.385Z,2.76
2019-03-13T02:34:13.037Z,2.76
2019-03-13T02:36:42.657Z,2.70
2019-03-13T02:39:12.355Z,2.73
2019-03-13T02:41:41.920Z,2.75
2019-03-13T02:44:11.531Z,2.71
2019-03-13T02:46:41.181Z,2.69
2019-03-13T02:49:10.817Z,2.71
2019-03-13T02:51:40.309Z,2.68
2019-03-13T02:54:09.983Z,2.70
2019-03-13T02:56:39.744Z,2.68
2019-03-13T02:59:09.480Z,2.68
2019-03-13T03:01:53.358Z,2.67
2019-03-13T03:04:22.984Z,2.65
2019-03-13T03:06:52.555Z,2.65
2019-03-13T03:09:22.115Z,2.59
2019-03-13T03:11:51.654Z,2.55
2019-03-13T03:14:21.287Z,2.56
2019-03-13T03:16:50.892Z,2.53
2019-03-13T03:19:20.500Z,2.49
2019-03-13T03:21:50.017Z,2.53
2019-03-13T03:24:19.681Z,2.53
2019-03-13T03:26:50.952Z,2.49
2019-03-13T03:29:20.748Z,2.45
2019-03-13T03:31:50.478Z,2.44
2019-03-13T03:34:20.076Z,2.47
2019-03-13T03:36:49.759Z,2.46
2019-03-13T03:39:19.402Z,2.51
2019-03-13T03:41:48.905Z,2.51
2019-03-13T03:44:18.555Z,2.46
2019-03-13T03:46:48.137Z,2.48
2019-03-13T03:49:17.753Z,2.48
2019-03-13T03:51:47.313Z,2.51
2019-03-13T03:54:17.050Z,2.56
2019-03-13T03:56:47.120Z,2.49
2019-03-13T03:59:16.787Z,2.48
2019-03-13T04:01:46.383Z,2.48
2019-03-13T04:04:15.933Z,2.43
2019-03-13T04:06:45.586Z,2.40
2019-03-13T04:09:15.160Z,2.37
2019-03-13T04:11:44.795Z,2.44
2019-03-13T04:14:14.820Z,2.37
2019-03-13T04:16:44.353Z,2.38
2019-03-13T04:19:13.948Z,2.39
2019-03-13T04:21:43.609Z,2.42
2019-03-13T04:24:13.200Z,2.47
2019-03-13T04:26:45.996Z,2.43
2019-03-13T04:29:15.701Z,2.47
2019-03-13T04:31:45.323Z,2.43
2019-03-13T04:34:15.004Z,2.40
2019-03-13T04:36:44.557Z,2.45
2019-03-13T04:39:14.203Z,2.44
2019-03-13T04:41:43.867Z,2.45
2019-03-13T04:44:13.382Z,2.42
2019-03-13T04:46:42.897Z,2.45
2019-03-13T04:49:12.415Z,2.47
2019-03-13T04:51:42.023Z,2.43
2019-03-13T04:54:11.584Z,2.43
2019-03-13T04:56:41.191Z,2.48
2019-03-13T04:59:10.998Z,2.51
2019-03-13T05:01:40.525Z,2.54
2019-03-13T05:04:10.173Z,2.53
2019-03-13T05:06:39.790Z,2.56
2019-03-13T05:09:11.176Z,2.63
2019-03-13T05:11:40.691Z,2.71
2019-03-13T05:14:10.288Z,2.80
2019-03-13T05:16:39.848Z,2.93
2019-03-13T05:19:09.498Z,2.98
2019-03-13T05:21:39.341Z,3.05
2019-03-13T05:24:08.920Z,3.14
2019-03-13T05:26:38.612Z,3.18
2019-03-13T05:29:08.289Z,3.22
2019-03-13T05:31:37.980Z,3.24
2019-03-13T05:34:07.562Z,3.29
2019-03-13T05:36:38.470Z,3.38
2019-03-13T05:39:08.747Z,3.40
2019-03-13T05:41:38.509Z,3.45
2019-03-13T05:44:08.375Z,3.45
2019-03-13T05:46:37.950Z,3.53
2019-03-13T05:49:07.873Z,3.51
2019-03-13T05:51:37.486Z,3.52
2019-03-13T05:54:07.168Z,3.54
2019-03-13T05:56:36.771Z,3.55
2019-03-13T05:59:06.401Z,3.56
2019-03-13T06:01:36.202Z,3.63
2019-03-13T06:04:05.868Z,3.66
2019-03-13T06:06:35.510Z,3.67
2019-03-13T06:09:06.536Z,3.72
2019-03-13T06:11:36.348Z,3.78
2019-03-13T06:14:07.855Z,3.78
2019-03-13T06:16:40.134Z,3.84
2019-03-13T06:19:09.949Z,3.85
2019-03-13T06:21:39.532Z,3.87
2019-03-13T06:24:09.014Z,3.88
2019-03-13T06:26:38.978Z,3.88
2019-03-13T06:29:11.915Z,3.93
2019-03-13T06:31:42.265Z,3.96
2019-03-13T06:34:12.221Z,3.98
2019-03-13T06:36:41.967Z,4.00
2019-03-13T06:39:14.593Z,3.99
2019-03-13T06:41:44.212Z,2.69
2019-03-13T06:44:13.904Z,4.10
2019-03-13T06:46:43.572Z,4.18
2019-03-13T06:49:13.234Z,4.23
2019-03-13T06:51:42.723Z,4.19
2019-03-13T06:54:12.326Z,4.24
2019-03-13T06:56:41.909Z,4.31
2019-03-13T06:59:34.498Z,4.40
2019-03-13T07:02:29.031Z,4.46
2019-03-13T07:05:12.028Z,4.51
2019-03-13T07:08:02.034Z,4.59
2019-03-13T07:10:50.299Z,4.63
2019-03-13T07:13:32.870Z,4.66
2019-03-13T07:16:30.709Z,4.71
2019-03-13T07:19:25.569Z,4.74
2019-03-13T07:22:22.897Z,4.78
2019-03-13T07:25:23.748Z,4.82
2019-03-13T07:28:30.513Z,4.92
2019-03-13T07:31:17.613Z,4.91
2019-03-13T07:34:04.939Z,4.96
2019-03-13T07:36:53.744Z,5.02
2019-03-13T07:42:54.476Z,5.06
2019-03-13T07:45:33.694Z,5.14
2019-03-13T07:51:42.702Z,5.19
2019-03-13T07:54:38.128Z,5.27
2019-03-13T07:57:35.918Z,5.42
2019-03-13T08:03:25.184Z,5.42
2019-03-13T08:10:20.782Z,5.43
2019-03-13T08:13:08.042Z,5.43
2019-03-13T08:15:59.287Z,5.47
2019-03-13T08:18:49.248Z,5.47
2019-03-13T08:21:52.885Z,3.82
2019-03-13T08:24:45.303Z,5.59
2019-03-13T08:27:42.858Z,5.59
2019-03-13T08:30:28.899Z,5.63
2019-03-13T08:33:23.233Z,5.61
2019-03-13T08:36:23.791Z,5.60
2019-03-13T08:39:12.231Z,5.60
2019-03-13T08:42:03.488Z,5.55
2019-03-13T08:44:58.119Z,5.43
2019-03-13T08:47:45.507Z,5.47
2019-03-13T08:50:37.947Z,5.48
2019-03-13T08:53:14.930Z,5.52
2019-03-13T08:56:00.917Z,5.58
2019-03-13T08:58:51.824Z,5.63
2019-03-13T09:01:39.912Z,5.60
2019-03-13T09:04:33.299Z,5.65
2019-03-13T09:07:21.332Z,5.73
2019-03-13T09:10:05.124Z,5.73
2019-03-13T09:12:43.563Z,5.75
2019-03-13T09:15:26.522Z,5.75
2019-03-13T09:18:16.008Z,5.70
2019-03-13T09:21:11.252Z,5.66
2019-03-13T09:23:58.628Z,5.66
2019-03-13T09:26:52.396Z,5.72
2019-03-13T09:29:49.569Z,5.77
2019-03-13T09:32:53.352Z,5.77
2019-03-13T09:35:48.058Z,5.86
2019-03-13T09:38:27.277Z,5.90
2019-03-13T09:41:09.318Z,5.90
2019-03-13T09:43:59.685Z,5.94
2019-03-13T09:46:52.653Z,5.94
2019-03-13T09:49:32.822Z,5.94
2019-03-13T09:52:17.528Z,5.87
2019-03-13T09:55:05.968Z,5.83
2019-03-13T09:57:54.739Z,5.83
2019-03-13T10:00:31.807Z,5.83
2019-03-13T10:03:19.169Z,5.84
2019-03-13T10:06:11.004Z,4.34
2019-03-13T10:09:02.677Z,4.34
2019-03-13T10:11:45.556Z,5.87
2019-03-13T10:14:43.373Z,5.87
2019-03-13T10:17:23.746Z,5.96
2019-03-13T10:20:25.017Z,5.96
2019-03-13T10:23:16.331Z,5.95
2019-03-13T10:26:05.280Z,5.95
2019-03-13T10:28:52.500Z,5.94
2019-03-13T10:31:39.106Z,6.02
2019-03-13T10:34:39.995Z,6.08
2019-03-13T10:37:23.615Z,6.11
2019-03-13T10:40:21.765Z,6.09
2019-03-13T10:43:09.016Z,6.09
2019-03-13T10:46:00.335Z,6.17
2019-03-13T10:48:53.215Z,6.19
2019-03-13T10:51:40.172Z,6.19
2019-03-13T10:54:25.380Z,6.21
2019-03-13T10:57:13.814Z,6.28
2019-03-13T11:00:04.413Z,6.28
2019-03-13T11:02:45.768Z,6.37
2019-03-13T11:05:34.496Z,6.37
2019-03-13T11:08:09.530Z,6.37
2019-03-13T11:10:52.163Z,6.32
2019-03-13T11:13:44.905Z,6.32
2019-03-13T11:16:24.870Z,6.32
2019-03-13T11:19:09.945Z,6.36
2019-03-13T11:21:46.428Z,6.41
2019-03-13T11:24:27.662Z,6.23
2019-03-13T11:27:03.463Z,6.25
2019-03-13T11:29:52.345Z,6.25
2019-03-13T11:32:39.865Z,6.24
2019-03-13T11:35:31.272Z,6.26
2019-03-13T11:38:18.622Z,6.17
2019-03-13T11:41:02.534Z,6.15
2019-03-13T11:43:42.708Z,6.15
2019-03-13T11:46:37.598Z,6.13
2019-03-13T11:49:14.893Z,6.16
2019-03-13T11:52:03.153Z,6.16
2019-03-13T11:54:57.939Z,6.12
2019-03-13T11:57:52.227Z,6.12
2019-03-13T12:00:47.080Z,6.17
2019-03-13T12:03:48.057Z,6.09
2019-03-13T12:06:37.695Z,6.09
2019-03-13T12:09:27.117Z,6.12
2019-03-13T12:12:25.106Z,6.12
2019-03-13T12:15:12.398Z,6.12
2019-03-13T12:18:04.261Z,6.15
2019-03-13T12:20:51.540Z,6.20
2019-03-13T12:23:49.641Z,6.27
2019-03-13T12:26:38.456Z,6.27
2019-03-13T12:29:30.266Z,6.27
2019-03-13T12:32:18.815Z,6.35
2019-03-13T12:35:10.571Z,6.35
2019-03-13T12:37:53.861Z,6.42
2019-03-13T12:40:41.953Z,6.50
2019-03-13T12:43:39.989Z,6.44
2019-03-13T12:46:29.125Z,6.44
2019-03-13T12:49:10.840Z,6.41
2019-03-13T12:51:58.101Z,6.52
2019-03-13T12:54:38.255Z,6.49
2019-03-13T12:57:27.203Z,6.49
2019-03-13T13:00:16.259Z,6.51
2019-03-13T13:03:07.934Z,6.63
2019-03-13T13:05:53.631Z,6.63
2019-03-13T13:08:45.689Z,6.69
2019-03-13T13:11:43.756Z,6.67
2019-03-13T13:14:44.146Z,6.67
2019-03-13T13:17:31.516Z,6.61
2019-03-13T13:20:01.444Z,6.58
2019-03-13T13:22:31.366Z,6.60
2019-03-13T13:25:00.895Z,6.60
2019-03-13T13:27:30.516Z,6.48
2019-03-13T13:30:00.358Z,6.49
2019-03-13T13:32:30.156Z,6.49
2019-03-13T13:34:59.865Z,6.44
2019-03-13T13:37:29.700Z,6.46
2019-03-13T13:39:59.479Z,6.60
2019-03-13T13:42:29.055Z,6.59
2019-03-13T13:44:59.095Z,6.61
2019-03-13T13:47:28.686Z,6.63
2019-03-13T13:50:00.141Z,6.63
2019-03-13T13:52:29.835Z,6.69
2019-03-13T13:54:59.565Z,6.69
2019-03-13T13:57:29.384Z,6.76
2019-03-13T13:59:59.325Z,6.63
2019-03-13T14:02:29.198Z,6.63
2019-03-13T14:04:58.835Z,6.56
2019-03-13T14:07:28.595Z,6.58
2019-03-13T14:09:58.434Z,5.74
2019-03-13T14:12:28.362Z,6.59
2019-03-13T14:14:58.246Z,6.59
2019-03-13T14:17:27.958Z,6.58
2019-03-13T14:19:57.526Z,6.63
2019-03-13T14:22:28.434Z,6.00
2019-03-13T14:24:58.230Z,6.72
2019-03-13T14:27:28.123Z,6.72
2019-03-13T14:29:58.058Z,6.74
2019-03-13T14:32:27.981Z,6.73
2019-03-13T14:34:57.813Z,6.73
2019-03-13T14:37:27.570Z,6.74
2019-03-13T14:39:57.876Z,6.68
2019-03-13T14:42:27.705Z,6.65
2019-03-13T14:45:00.360Z,6.61
2019-03-13T14:47:30.367Z,6.55
2019-03-13T14:50:00.410Z,6.57
2019-03-13T14:52:30.097Z,6.62
2019-03-13T14:54:59.602Z,6.66
2019-03-13T14:57:29.342Z,6.60
2019-03-13T14:59:58.884Z,6.60
2019-03-13T15:02:28.572Z,6.59
2019-03-13T15:04:58.549Z,6.59
2019-03-13T15:07:28.513Z,6.60
2019-03-13T15:09:58.361Z,6.57
2019-03-13T15:12:28.412Z,6.57
2019-03-13T15:14:58.228Z,6.58
2019-03-13T15:17:28.311Z,6.62
2019-03-13T15:19:58.149Z,6.65
2019-03-13T15:22:27.948Z,6.61
2019-03-13T15:24:58.312Z,6.61
2019-03-13T15:27:28.208Z,6.61
2019-03-13T15:29:59.275Z,6.61
2019-03-13T15:32:29.161Z,6.62
2019-03-13T15:34:58.816Z,6.64
2019-03-13T15:37:28.447Z,6.63
2019-03-13T15:39:58.402Z,6.56
2019-03-13T15:42:28.162Z,6.53
2019-03-13T15:44:58.027Z,6.53
2019-03-13T15:47:28.140Z,6.52
2019-03-13T15:49:58.169Z,6.43
2019-03-13T15:52:28.047Z,6.43
2019-03-13T15:54:57.751Z,6.60
2019-03-13T15:57:27.818Z,6.60
2019-03-13T15:59:57.494Z,6.58
2019-03-13T16:02:27.498Z,6.60
2019-03-13T16:04:57.231Z,6.50
2019-03-13T16:07:27.121Z,6.56
2019-03-13T16:09:57.088Z,6.47
2019-03-13T16:12:27.121Z,6.51
2019-03-13T16:14:57.162Z,6.44
2019-03-13T16:17:27.009Z,6.44
2019-03-13T16:19:56.955Z,6.45
2019-03-13T16:22:27.076Z,6.49
2019-03-13T16:24:57.114Z,6.52
2019-03-13T16:27:27.143Z,6.55
2019-03-13T16:29:59.754Z,6.50
2019-03-13T16:32:29.357Z,6.45
2019-03-13T16:34:58.893Z,6.44
2019-03-13T16:37:28.613Z,3.32
2019-03-13T16:39:58.316Z,6.42
2019-03-13T16:42:28.183Z,6.42
2019-03-13T16:44:57.950Z,6.35
2019-03-13T16:47:29.250Z,6.35
2019-03-13T16:49:59.180Z,6.41
2019-03-13T16:52:29.213Z,6.44
2019-03-13T16:55:02.083Z,6.38
2019-03-13T16:57:31.973Z,6.31
2019-03-13T17:00:01.815Z,6.31
2019-03-13T17:02:31.489Z,6.26
2019-03-13T17:05:00.973Z,6.26
2019-03-13T17:07:30.748Z,6.17
2019-03-13T17:10:00.603Z,6.17
2019-03-13T17:12:30.864Z,6.19
2019-03-13T17:15:00.975Z,6.16
2019-03-13T17:17:30.658Z,6.16
2019-03-13T17:20:00.393Z,6.12
2019-03-13T17:22:30.159Z,6.14
2019-03-13T17:25:00.158Z,6.11
2019-03-13T17:27:30.189Z,6.18
2019-03-13T17:30:00.354Z,6.22
2019-03-13T17:32:30.125Z,6.22
2019-03-13T17:34:59.824Z,6.26
2019-03-13T17:37:29.574Z,6.26
2019-03-13T17:39:59.205Z,6.19
2019-03-13T17:42:28.859Z,6.21
2019-03-13T17:44:58.867Z,6.18
2019-03-13T17:47:28.540Z,6.18
2019-03-13T17:49:58.545Z,6.20
2019-03-13T17:52:28.570Z,6.23
2019-03-13T17:54:58.437Z,6.23
2019-03-13T17:57:28.325Z,6.23
2019-03-13T17:59:58.006Z,6.22
2019-03-13T18:02:27.909Z,6.21
2019-03-13T18:04:59.876Z,6.23
2019-03-13T18:07:29.764Z,6.26
2019-03-13T18:09:59.419Z,6.22
2019-03-13T18:12:29.429Z,6.24
2019-03-13T18:14:59.775Z,6.21
2019-03-13T18:17:29.609Z,6.21
2019-03-13T18:19:59.184Z,6.21
2019-03-13T18:22:28.928Z,6.24
2019-03-13T18:24:58.606Z,6.20
2019-03-13T18:27:28.574Z,6.20
2019-03-13T18:30:00.372Z,6.25
2019-03-13T18:32:41.394Z,6.32
2019-03-13T18:35:01.957Z,6.31
2019-03-13T18:37:31.648Z,6.29
2019-03-13T18:40:01.496Z,6.26
2019-03-13T18:42:31.179Z,6.23
2019-03-13T18:45:01.098Z,6.24
2019-03-13T18:47:30.814Z,6.24
2019-03-13T18:50:00.559Z,6.31
2019-03-13T18:52:30.559Z,6.25
2019-03-13T18:55:00.383Z,6.25
2019-03-13T18:57:30.041Z,6.24
2019-03-13T18:59:59.735Z,6.25
2019-03-13T19:02:29.424Z,6.28
2019-03-13T19:04:58.967Z,6.27
2019-03-13T19:07:28.566Z,6.19
2019-03-13T19:09:58.351Z,6.15
2019-03-13T19:12:29.606Z,6.15
2019-03-13T19:14:59.455Z,6.20
2019-03-13T19:17:32.239Z,6.25
2019-03-13T19:20:01.914Z,6.25
2019-03-13T19:22:31.672Z,6.27
2019-03-13T19:25:01.359Z,6.21
2019-03-13T19:27:31.441Z,6.23
2019-03-13T19:30:01.333Z,6.27
2019-03-13T19:32:31.131Z,6.27
2019-03-13T19:35:03.424Z,6.33
2019-03-13T19:37:33.544Z,6.37
2019-03-13T19:40:03.184Z,6.37
2019-03-13T19:42:33.298Z,6.37
2019-03-13T19:45:06.294Z,6.33
2019-03-13T19:47:36.302Z,6.33
2019-03-13T19:50:08.467Z,6.31
2019-03-13T19:52:40.202Z,6.32
2019-03-13T19:55:12.515Z,6.33
2019-03-13T19:57:43.269Z,6.35
2019-03-13T20:00:16.654Z,6.30
2019-03-13T20:02:59.557Z,6.30
2019-03-13T20:05:22.047Z,6.23
2019-03-13T20:07:52.736Z,6.25
2019-03-13T20:10:23.853Z,6.27
2019-03-13T20:12:53.760Z,6.29
2019-03-13T20:15:26.343Z,6.29
2019-03-13T20:17:56.263Z,6.28
2019-03-13T20:20:26.093Z,6.25
2019-03-13T20:22:57.623Z,6.27
2019-03-13T20:25:27.422Z,6.30
2019-03-13T20:27:58.253Z,6.28
2019-03-13T20:30:28.674Z,6.29
2019-03-13T20:32:58.466Z,6.33
2019-03-13T20:35:28.271Z,6.30
2019-03-13T20:37:58.484Z,6.32
2019-03-13T20:40:28.367Z,6.32
2019-03-13T20:42:58.419Z,6.24
2019-03-13T20:45:28.596Z,6.19
2019-03-13T20:47:59.216Z,6.20
2019-03-13T20:50:36.469Z,6.20
2019-03-13T20:53:01.236Z,6.23
2019-03-13T20:55:30.821Z,5.73
2019-03-13T20:58:00.549Z,6.25
2019-03-13T21:00:34.413Z,6.25
2019-03-13T21:03:02.434Z,6.29
2019-03-13T21:05:35.213Z,6.27
2019-03-13T21:08:04.985Z,6.27
2019-03-13T21:10:36.532Z,6.28
2019-03-13T21:13:06.462Z,6.28
2019-03-13T21:15:36.599Z,6.19
2019-03-13T21:18:06.524Z,6.19
2019-03-13T21:20:39.382Z,6.17
2019-03-13T21:23:09.008Z,6.23
2019-03-13T21:25:38.835Z,6.25
2019-03-13T21:28:08.549Z,6.26
2019-03-13T21:30:38.484Z,6.27
2019-03-13T21:33:08.245Z,6.27
2019-03-13T21:35:38.114Z,6.18
2019-03-13T21:38:07.914Z,6.16
2019-03-13T21:40:37.851Z,6.16
2019-03-13T21:43:07.626Z,6.19
2019-03-13T21:45:41.525Z,6.21
2019-03-13T21:48:08.842Z,6.24
2019-03-13T21:50:38.451Z,6.26
2019-03-13T21:53:08.356Z,6.26
2019-03-13T21:55:38.027Z,6.15
2019-03-13T21:58:07.670Z,6.15
2019-03-13T22:00:39.475Z,6.11
2019-03-13T22:03:10.972Z,6.16
2019-03-13T22:05:41.811Z,6.16
2019-03-13T22:08:13.821Z,6.14
2019-03-13T22:10:45.970Z,6.14
2019-03-13T22:13:16.885Z,6.21
2019-03-13T22:15:47.387Z,6.15
2019-03-13T22:18:20.016Z,6.19
2019-03-13T22:20:50.358Z,6.25
2019-03-13T22:23:20.839Z,6.24
2019-03-13T22:25:50.430Z,6.24
2019-03-13T22:28:20.080Z,6.26
2019-03-13T22:30:50.002Z,6.20
2019-03-13T22:33:20.580Z,6.19
2019-03-13T22:35:50.805Z,6.15
2019-03-13T22:38:20.507Z,6.15
2019-03-13T22:40:50.582Z,6.21
2019-03-13T22:43:20.128Z,6.21
2019-03-13T22:45:50.205Z,6.23
2019-03-13T22:48:19.873Z,6.24
2019-03-13T22:50:49.468Z,6.19
2019-03-13T22:53:19.212Z,6.19
2019-03-13T22:55:49.001Z,6.19
2019-03-13T22:58:18.667Z,6.18
2019-03-13T23:01:06.164Z,6.14
2019-03-13T23:03:35.821Z,6.10
2019-03-13T23:06:05.720Z,6.16
2019-03-13T23:08:35.503Z,6.16
2019-03-13T23:11:05.262Z,6.07
2019-03-13T23:13:35.044Z,6.07
2019-03-13T23:16:05.443Z,6.04
2019-03-13T23:18:35.440Z,6.09
2019-03-13T23:21:05.161Z,6.07
2019-03-13T23:23:34.731Z,6.08
2019-03-13T23:26:04.319Z,6.04
2019-03-13T23:28:34.107Z,6.09
2019-03-13T23:31:04.394Z,6.09
2019-03-13T23:33:33.905Z,6.03
2019-03-13T23:36:03.558Z,6.02
2019-03-13T23:38:33.348Z,6.02
2019-03-13T23:41:02.962Z,5.98
2019-03-13T23:43:32.626Z,5.98
2019-03-13T23:46:02.232Z,5.98
2019-03-13T23:48:31.876Z,5.97
2019-03-13T23:51:01.580Z,5.97
2019-03-13T23:53:31.161Z,5.95
2019-03-13T23:56:00.837Z,5.95
2019-03-13T23:58:30.488Z,5.98
